createdAt,value
2018-05-23T00:02:17.745Z,100910.06
2018-05-23T00:04:43.667Z,100917.53
2018-05-23T00:07:09.597Z,100922.53
2018-05-23T00:09:35.584Z,100920.29
2018-05-23T00:12:01.723Z,100916.70
2018-05-23T00:14:27.843Z,100915.86
2018-05-23T00:16:53.923Z,100916.09
2018-05-23T00:19:19.854Z,100920.43
2018-05-23T00:21:45.824Z,100920.47
2018-05-23T00:24:11.758Z,100924.81
2018-05-23T00:26:37.754Z,100931.92
2018-05-23T00:29:03.837Z,100930.55
2018-05-23T00:31:29.872Z,100931.17
2018-05-23T00:34:10.740Z,100939.66
2018-05-23T00:36:36.700Z,100941.36
2018-05-23T00:39:02.717Z,100938.61
2018-05-23T00:41:28.632Z,100937.52
2018-05-23T00:43:54.570Z,100941.16
2018-05-23T00:46:20.488Z,100937.42
2018-05-23T00:48:46.414Z,100936.00
2018-05-23T00:51:12.387Z,100940.03
2018-05-23T00:53:38.323Z,100943.94
2018-05-23T00:56:04.789Z,100944.12
2018-05-23T00:58:30.732Z,100945.48
2018-05-23T01:00:56.691Z,100952.44
2018-05-23T01:03:22.620Z,100958.33
2018-05-23T01:05:48.575Z,100959.69
2018-05-23T01:08:14.507Z,100960.85
2018-05-23T01:10:40.472Z,100961.18
2018-05-23T01:13:06.413Z,100959.03
2018-05-23T01:15:32.405Z,100962.13
2018-05-23T01:17:58.329Z,100962.45
2018-05-23T01:20:24.303Z,100962.95
2018-05-23T01:22:50.247Z,100964.92
2018-05-23T01:25:16.185Z,100973.21
2018-05-23T01:27:42.116Z,100982.83
2018-05-23T01:30:08.017Z,100971.84
2018-05-23T01:32:33.939Z,100977.83
2018-05-23T01:34:59.853Z,100972.89
2018-05-23T01:37:25.817Z,100986.59
2018-05-23T01:39:51.764Z,100980.31
2018-05-23T01:42:17.717Z,100978.66
2018-05-23T01:44:43.624Z,100977.55
2018-05-23T01:47:09.560Z,100982.61
2018-05-23T01:49:35.488Z,100984.79
2018-05-23T01:52:01.428Z,100979.63
2018-05-23T01:54:27.350Z,100976.43
2018-05-23T01:56:53.269Z,100984.55
2018-05-23T01:59:19.204Z,100982.65
2018-05-23T02:01:45.140Z,100986.33
2018-05-23T02:04:11.086Z,100986.77
2018-05-23T02:06:37.014Z,100983.55
2018-05-23T02:09:02.996Z,100983.47
2018-05-23T02:11:28.956Z,100984.35
2018-05-23T02:13:54.924Z,100993.05
2018-05-23T02:16:20.844Z,100990.22
2018-05-23T02:18:46.756Z,100993.39
2018-05-23T02:21:12.685Z,100984.94
2018-05-23T02:23:38.599Z,100992.42
2018-05-23T02:26:04.528Z,100985.86
2018-05-23T02:28:30.441Z,100995.55
2018-05-23T02:30:56.375Z,100998.14
2018-05-23T02:33:22.306Z,101001.84
2018-05-23T02:35:48.259Z,100999.30
2018-05-23T02:38:14.173Z,101001.11
2018-05-23T02:40:40.082Z,101013.34
2018-05-23T02:43:06.032Z,101010.28
2018-05-23T02:45:31.948Z,101007.55
2018-05-23T02:47:57.901Z,101015.52
2018-05-23T02:50:23.819Z,101013.41
2018-05-23T02:52:49.765Z,101013.99
2018-05-23T02:55:15.697Z,101013.69
2018-05-23T02:57:41.626Z,101016.72
2018-05-23T03:00:07.541Z,101025.66
2018-05-23T03:02:33.487Z,101026.09
2018-05-23T03:04:59.411Z,101031.95
2018-05-23T03:07:25.316Z,101043.03
2018-05-23T03:09:51.250Z,101037.86
2018-05-23T03:12:17.185Z,101043.17
2018-05-23T03:14:43.134Z,101046.38
2018-05-23T03:17:09.049Z,101053.11
2018-05-23T03:19:34.990Z,101058.09
2018-05-23T03:22:00.946Z,101061.83
2018-05-23T03:24:26.940Z,101067.09
2018-05-23T03:26:52.876Z,101069.78
2018-05-23T03:29:18.831Z,101069.39
2018-05-23T03:31:44.771Z,101062.71
2018-05-23T03:34:10.694Z,101072.94
2018-05-23T03:36:36.616Z,101072.59
2018-05-23T03:39:02.626Z,101071.53
2018-05-23T03:41:28.550Z,101067.09
2018-05-23T03:43:54.458Z,101071.72
2018-05-23T03:46:20.390Z,101077.95
2018-05-23T03:48:46.309Z,101079.22
2018-05-23T03:51:12.232Z,101088.05
2018-05-23T03:53:38.139Z,101088.31
2018-05-23T03:56:04.063Z,101092.31
2018-05-23T03:58:29.979Z,101101.80
2018-05-23T04:01:08.161Z,101102.78
2018-05-23T04:03:46.245Z,101096.05
2018-05-23T04:09:05.863Z,101102.91
2018-05-23T04:11:31.867Z,101110.56
2018-05-23T04:13:57.725Z,101103.31
2018-05-23T04:16:23.635Z,101109.28
2018-05-23T04:18:49.599Z,101106.16
2018-05-23T04:21:15.567Z,101104.00
2018-05-23T04:23:41.507Z,101113.80
2018-05-23T04:26:07.411Z,101120.61
2018-05-23T04:28:33.343Z,101122.41
2018-05-23T04:30:59.251Z,101120.59
2018-05-23T04:33:25.186Z,101122.74
2018-05-23T04:35:51.109Z,101122.55
2018-05-23T04:38:17.057Z,101119.66
2018-05-23T04:40:42.992Z,101122.30
2018-05-23T04:43:08.957Z,101124.11
2018-05-23T04:45:34.898Z,101127.77
2018-05-23T04:48:00.820Z,101132.07
2018-05-23T04:50:26.738Z,101126.17
2018-05-23T04:52:52.664Z,101134.78
2018-05-23T04:55:18.604Z,101139.16
2018-05-23T04:57:44.542Z,101139.91
2018-05-23T05:00:10.477Z,101140.50
2018-05-23T05:02:36.408Z,101149.16
2018-05-23T05:05:02.385Z,101149.02
2018-05-23T05:07:28.305Z,101150.23
2018-05-23T05:09:54.220Z,101154.69
2018-05-23T05:12:20.163Z,101154.94
2018-05-23T05:14:46.035Z,101157.72
2018-05-23T05:17:11.972Z,101157.73
2018-05-23T05:19:37.894Z,101158.00
2018-05-23T05:22:03.837Z,101162.22
2018-05-23T05:24:29.773Z,101168.09
2018-05-23T05:26:55.699Z,101174.27
2018-05-23T05:29:21.616Z,101176.91
2018-05-23T05:31:47.553Z,101183.80
2018-05-23T05:34:13.522Z,101183.27
2018-05-23T05:36:39.464Z,101181.55
2018-05-23T05:39:05.424Z,101182.52
2018-05-23T05:41:31.376Z,101194.38
2018-05-23T05:43:57.293Z,101188.59
2018-05-23T05:46:23.238Z,101185.21
2018-05-23T05:48:49.190Z,101192.83
2018-05-23T05:51:15.105Z,101196.61
2018-05-23T05:53:41.125Z,101196.77
2018-05-23T05:56:07.003Z,101202.34
2018-05-23T05:58:32.940Z,101198.02
2018-05-23T06:00:58.861Z,101204.62
2018-05-23T06:03:24.793Z,101205.81
2018-05-23T06:05:50.718Z,101209.95
2018-05-23T06:08:16.635Z,101212.09
2018-05-23T06:10:42.567Z,101216.25
2018-05-23T06:13:08.478Z,101217.03
2018-05-23T06:15:34.422Z,101214.88
2018-05-23T06:18:00.348Z,101216.19
2018-05-23T06:20:26.283Z,101222.88
2018-05-23T06:22:52.183Z,101219.52
2018-05-23T06:25:18.101Z,101220.55
2018-05-23T06:27:44.053Z,101227.39
2018-05-23T06:30:09.983Z,101231.78
2018-05-23T06:32:35.893Z,101231.67
2018-05-23T06:35:01.801Z,101230.13
2018-05-23T06:37:27.738Z,101226.17
2018-05-23T06:39:53.683Z,101229.05
2018-05-23T06:42:19.625Z,101232.42
2018-05-23T06:44:45.551Z,101238.08
2018-05-23T06:47:11.475Z,101235.00
2018-05-23T06:49:37.393Z,101233.37
2018-05-23T06:52:03.324Z,101233.69
2018-05-23T06:54:29.237Z,101241.37
2018-05-23T06:56:55.136Z,101240.63
2018-05-23T06:59:21.080Z,101239.09
2018-05-23T07:01:47.040Z,101237.95
2018-05-23T07:04:12.957Z,101240.08
2018-05-23T07:06:38.867Z,101240.58
2018-05-23T07:09:04.858Z,101248.53
2018-05-23T07:11:30.789Z,101252.05
2018-05-23T07:13:56.692Z,101251.73
2018-05-23T07:16:22.627Z,101253.22
2018-05-23T07:18:48.550Z,101251.47
2018-05-23T07:21:14.474Z,101255.41
2018-05-23T07:23:40.404Z,101253.80
2018-05-23T07:26:06.344Z,101249.78
2018-05-23T07:28:32.262Z,101250.49
2018-05-23T07:30:58.198Z,101247.70
2018-05-23T07:33:24.125Z,101248.59
2018-05-23T07:35:50.076Z,101257.07
2018-05-23T07:38:16.044Z,101259.88
2018-05-23T07:40:41.920Z,101268.00
2018-05-23T07:43:07.860Z,101264.64
2018-05-23T07:45:33.781Z,101254.26
2018-05-23T07:47:59.734Z,101268.11
2018-05-23T07:50:25.641Z,101262.55
2018-05-23T07:52:51.589Z,101265.43
2018-05-23T07:55:17.501Z,101259.23
2018-05-23T07:57:43.436Z,101267.52
2018-05-23T08:00:09.348Z,101266.48
2018-05-23T08:02:35.284Z,101266.09
2018-05-23T08:05:01.195Z,101270.75
2018-05-23T08:07:27.100Z,101270.50
2018-05-23T08:09:53.031Z,101277.97
2018-05-23T08:12:18.953Z,101280.64
2018-05-23T08:14:44.863Z,101283.20
2018-05-23T08:17:10.781Z,101283.66
2018-05-23T08:19:36.709Z,101287.26
2018-05-23T08:22:02.619Z,101284.53
2018-05-23T08:24:28.563Z,101279.01
2018-05-23T08:26:54.487Z,101282.80
2018-05-23T08:29:20.433Z,101284.31
2018-05-23T08:31:46.353Z,101290.17
2018-05-23T08:34:12.286Z,101288.16
2018-05-23T08:36:38.211Z,101287.02
2018-05-23T08:39:05.023Z,101280.86
2018-05-23T08:41:30.948Z,101287.68
2018-05-23T08:43:56.844Z,101288.27
2018-05-23T08:46:22.784Z,101286.53
2018-05-23T08:48:48.679Z,101288.33
2018-05-23T08:51:14.600Z,101296.30
2018-05-23T08:53:40.528Z,101297.55
2018-05-23T08:56:06.465Z,101298.28
2018-05-23T08:58:32.376Z,101302.88
2018-05-23T09:00:58.324Z,101298.75
2018-05-23T09:03:24.239Z,101306.08
2018-05-23T09:05:50.161Z,101309.52
2018-05-23T09:08:16.103Z,101303.54
2018-05-23T09:10:42.038Z,101309.26
2018-05-23T09:13:07.969Z,101308.30
2018-05-23T09:15:33.888Z,101320.48
2018-05-23T09:17:59.808Z,101321.34
2018-05-23T09:20:25.718Z,101323.44
2018-05-23T09:22:51.636Z,101326.76
2018-05-23T09:25:17.635Z,101327.31
2018-05-23T09:27:43.525Z,101324.39
2018-05-23T09:30:09.477Z,101327.61
2018-05-23T09:32:35.486Z,101330.23
2018-05-23T09:35:01.353Z,101330.67
2018-05-23T09:37:27.306Z,101331.61
2018-05-23T09:39:53.229Z,101317.95
2018-05-23T09:42:19.149Z,101315.58
2018-05-23T09:44:45.077Z,101324.02
2018-05-23T09:47:10.979Z,101324.23
2018-05-23T09:49:36.904Z,101311.59
2018-05-23T09:52:02.867Z,101323.61
2018-05-23T09:54:28.784Z,101318.77
2018-05-23T09:56:54.704Z,101320.84
2018-05-23T09:59:20.648Z,101313.88
2018-05-23T10:01:46.587Z,101320.98
2018-05-23T10:04:12.497Z,101321.94
2018-05-23T10:06:38.425Z,101325.89
2018-05-23T10:09:04.411Z,101322.19
2018-05-23T10:11:30.370Z,101324.49
2018-05-23T10:13:56.286Z,101315.45
2018-05-23T10:16:22.249Z,101320.36
2018-05-23T10:18:48.160Z,101320.65
2018-05-23T10:21:14.074Z,101324.87
2018-05-23T10:23:40.012Z,101326.86
2018-05-23T10:26:05.931Z,101331.89
2018-05-23T10:28:31.868Z,101331.43
2018-05-23T10:30:57.817Z,101331.81
2018-05-23T10:33:23.812Z,101335.03
2018-05-23T10:35:49.671Z,101326.81
2018-05-23T10:38:15.604Z,101332.13
2018-05-23T10:40:41.503Z,101325.23
2018-05-23T10:43:07.422Z,101328.70
2018-05-23T10:45:33.362Z,101327.09
2018-05-23T10:47:59.275Z,101325.39
2018-05-23T10:50:25.214Z,101318.59
2018-05-23T10:52:51.136Z,101334.56
2018-05-23T10:55:17.066Z,101334.38
2018-05-23T10:57:42.994Z,101331.13
2018-05-23T11:00:09.005Z,101329.37
2018-05-23T11:02:34.933Z,101333.88
2018-05-23T11:05:00.860Z,101335.66
2018-05-23T11:07:26.813Z,101341.73
2018-05-23T11:09:52.737Z,101338.42
2018-05-23T11:12:18.686Z,101338.60
2018-05-23T11:14:44.714Z,101333.42
2018-05-23T11:17:10.580Z,101327.02
2018-05-23T11:19:36.495Z,101333.25
2018-05-23T11:22:02.437Z,101342.94
2018-05-23T11:24:28.357Z,101332.87
2018-05-23T11:26:54.269Z,101340.17
2018-05-23T11:29:20.185Z,101329.30
2018-05-23T11:31:46.114Z,101322.42
2018-05-23T11:34:12.076Z,101320.63
2018-05-23T11:36:38.006Z,101331.61
2018-05-23T11:39:03.994Z,101335.48
2018-05-23T11:41:29.917Z,101328.39
2018-05-23T11:43:55.857Z,101334.52
2018-05-23T11:46:21.782Z,101335.13
2018-05-23T11:48:47.732Z,101332.27
2018-05-23T11:51:13.668Z,101324.84
2018-05-23T11:53:39.611Z,101327.19
2018-05-23T11:56:05.534Z,101312.31
2018-05-23T11:58:31.441Z,101317.73
2018-05-23T12:00:57.372Z,101313.09
2018-05-23T12:03:23.293Z,101313.70
2018-05-23T12:05:49.283Z,101313.83
2018-05-23T12:08:15.236Z,101314.87
2018-05-23T12:10:41.255Z,101307.91
2018-05-23T12:13:07.099Z,101319.50
2018-05-23T12:15:33.055Z,101319.36
2018-05-23T12:17:58.952Z,101298.69
2018-05-23T12:20:24.870Z,101304.70
2018-05-23T12:22:50.809Z,101290.63
2018-05-23T12:25:31.690Z,101302.43
2018-05-23T12:27:57.628Z,101302.97
2018-05-23T12:30:23.558Z,101300.63
2018-05-23T12:32:49.524Z,101305.96
2018-05-23T12:35:15.492Z,101307.20
2018-05-23T12:37:41.444Z,101306.17
2018-05-23T12:40:07.369Z,101300.69
2018-05-23T12:42:33.301Z,101304.37
2018-05-23T12:44:59.203Z,101294.89
2018-05-23T12:47:25.149Z,101303.20
2018-05-23T12:49:51.081Z,101299.28
2018-05-23T12:52:17.028Z,101297.09
2018-05-23T12:54:42.945Z,101304.23
2018-05-23T12:57:08.885Z,101293.81
2018-05-23T12:59:34.817Z,101288.63
2018-05-23T13:02:00.729Z,101300.11
2018-05-23T13:04:26.683Z,101296.52
2018-05-23T13:06:52.612Z,101293.30
2018-05-23T13:09:18.559Z,101302.52
2018-05-23T13:11:44.507Z,101302.05
2018-05-23T13:14:10.462Z,101301.59
2018-05-23T13:16:36.417Z,101302.84
2018-05-23T13:19:02.352Z,101293.70
2018-05-23T13:21:28.277Z,101292.25
2018-05-23T13:23:54.234Z,101288.47
2018-05-23T13:26:20.176Z,101287.39
2018-05-23T13:28:46.139Z,101296.30
2018-05-23T13:31:12.172Z,101285.38
2018-05-23T13:33:38.050Z,101285.56
2018-05-23T13:36:04.004Z,101278.94
2018-05-23T13:38:29.974Z,101287.97
2018-05-23T13:40:55.988Z,101286.53
2018-05-23T13:43:21.946Z,101289.80
2018-05-23T13:45:48.034Z,101291.64
2018-05-23T13:48:13.980Z,101286.84
2018-05-23T13:50:39.924Z,101289.28
2018-05-23T13:53:05.881Z,101287.63
2018-05-23T13:55:31.845Z,101281.20
2018-05-23T13:57:57.782Z,101279.45
2018-05-23T14:00:23.696Z,101280.28
2018-05-23T14:02:49.634Z,101277.79
2018-05-23T14:05:15.576Z,101281.77
2018-05-23T14:07:41.528Z,101274.17
2018-05-23T14:10:07.513Z,101277.67
2018-05-23T14:12:33.509Z,101268.33
2018-05-23T14:14:59.446Z,101278.66
2018-05-23T14:17:25.427Z,101274.49
2018-05-23T14:19:51.369Z,101279.44
2018-05-23T14:22:17.317Z,101284.06
2018-05-23T14:24:43.261Z,101280.64
2018-05-23T14:27:09.226Z,101283.45
2018-05-23T14:29:35.165Z,101281.70
2018-05-23T14:32:01.081Z,101279.52
2018-05-23T14:34:27.042Z,101280.17
2018-05-23T14:36:52.974Z,101275.74
2018-05-23T14:39:18.952Z,101280.08
2018-05-23T14:41:44.883Z,101267.97
2018-05-23T14:44:10.824Z,101268.86
2018-05-23T14:46:36.753Z,101266.71
2018-05-23T14:49:02.719Z,101262.56
2018-05-23T14:51:28.712Z,101261.52
2018-05-23T14:53:54.638Z,101258.60
2018-05-23T14:56:20.697Z,101261.89
2018-05-23T14:58:46.620Z,101264.61
2018-05-23T15:01:12.566Z,101264.78
2018-05-23T15:03:38.498Z,101258.97
2018-05-23T15:06:04.485Z,101251.34
2018-05-23T15:08:30.498Z,101264.59
2018-05-23T15:10:56.394Z,101259.50
2018-05-23T15:20:06.103Z,101266.15
2018-05-23T15:22:32.013Z,101256.02
2018-05-23T15:24:57.957Z,101252.98
2018-05-23T15:27:23.912Z,101263.97
2018-05-23T15:29:49.848Z,101267.61
2018-05-23T15:32:15.880Z,101261.87
2018-05-23T15:34:41.802Z,101256.83
2018-05-23T15:37:07.783Z,101265.70
2018-05-23T15:39:33.731Z,101269.75
2018-05-23T15:41:59.647Z,101258.66
2018-05-23T15:44:25.613Z,101265.72
2018-05-23T15:46:51.582Z,101262.86
2018-05-23T15:49:17.591Z,101272.58
2018-05-23T15:51:43.478Z,101271.36
2018-05-23T15:54:09.688Z,101276.56
2018-05-23T15:56:35.626Z,101279.58
2018-05-23T15:59:01.564Z,101275.69
2018-05-23T16:01:27.486Z,101278.28
2018-05-23T16:03:53.440Z,101280.86
2018-05-23T16:06:19.393Z,101280.87
2018-05-23T16:08:45.340Z,101281.86
2018-05-23T16:11:11.340Z,101282.19
2018-05-23T16:13:37.260Z,101287.58
2018-05-23T16:16:03.227Z,101295.16
2018-05-23T16:18:29.195Z,101285.25
2018-05-23T16:20:55.145Z,101286.72
2018-05-23T16:23:21.135Z,101285.75
2018-05-23T16:25:47.100Z,101281.80
2018-05-23T16:28:13.337Z,101275.77
2018-05-23T16:30:39.482Z,101280.45
2018-05-23T16:33:05.546Z,101275.31
2018-05-23T16:35:31.677Z,101282.16
2018-05-23T16:37:57.895Z,101286.45
2018-05-23T16:40:24.016Z,101267.94
2018-05-23T16:42:50.478Z,101277.64
2018-05-23T16:45:16.474Z,101274.21
2018-05-23T16:47:42.715Z,101269.52
2018-05-23T16:50:08.913Z,101265.30
2018-05-23T16:52:34.859Z,101269.70
2018-05-23T16:55:00.804Z,101273.34
2018-05-23T16:57:26.754Z,101271.74
2018-05-23T16:59:52.683Z,101272.47
2018-05-23T17:02:18.660Z,101268.28
2018-05-23T17:04:44.613Z,101274.28
2018-05-23T17:07:10.646Z,101270.45
2018-05-23T17:09:36.641Z,101266.93
2018-05-23T17:12:02.606Z,101265.82
2018-05-23T17:14:28.672Z,101276.12
2018-05-23T17:16:54.637Z,101271.64
2018-05-23T17:19:20.683Z,101269.09
2018-05-23T17:21:46.653Z,101281.69
2018-05-23T17:24:12.643Z,101277.17
2018-05-23T17:26:38.616Z,101277.52
2018-05-23T17:29:04.605Z,101273.78
2018-05-23T17:31:30.620Z,101275.68
2018-05-23T17:33:56.597Z,101280.42
2018-05-23T17:36:22.547Z,101284.45
2018-05-23T17:38:48.550Z,101284.66
2018-05-23T17:41:14.552Z,101280.18
2018-05-23T17:43:40.543Z,101283.97
2018-05-23T17:46:06.545Z,101293.14
2018-05-23T17:48:32.553Z,101291.64
2018-05-23T17:50:58.671Z,101291.44
2018-05-23T17:53:24.648Z,101300.90
2018-05-23T17:55:50.689Z,101300.36
2018-05-23T17:58:17.388Z,101303.89
2018-05-23T18:00:43.372Z,101303.13
2018-05-23T18:03:10.202Z,101297.22
2018-05-23T18:05:36.302Z,101300.05
2018-05-23T18:08:02.281Z,101298.94
2018-05-23T18:10:28.221Z,101301.27
2018-05-23T18:12:54.208Z,101311.48
2018-05-23T18:15:20.233Z,101305.73
2018-05-23T18:17:46.270Z,101315.97
2018-05-23T18:20:12.250Z,101309.54
2018-05-23T18:22:38.273Z,101309.17
2018-05-23T18:25:04.300Z,101308.48
2018-05-23T18:27:30.391Z,101317.06
2018-05-23T18:29:56.377Z,101311.35
2018-05-23T18:32:22.416Z,101316.45
2018-05-23T18:34:48.444Z,101318.86
2018-05-23T18:37:14.461Z,101315.66
2018-05-23T18:39:40.483Z,101328.41
2018-05-23T18:45:00.299Z,101338.14
2018-05-23T18:47:26.305Z,101337.88
2018-05-23T18:49:52.324Z,101338.66
2018-05-23T18:52:18.418Z,101348.41
2018-05-23T18:54:44.407Z,101348.50
2018-05-23T18:57:10.417Z,101354.91
2018-05-23T18:59:38.332Z,101355.71
2018-05-23T19:02:04.298Z,101348.34
2018-05-23T19:04:30.232Z,101352.31
2018-05-23T19:06:56.231Z,101352.78
2018-05-23T19:09:23.020Z,101357.70
2018-05-23T19:11:49.048Z,101357.28
2018-05-23T19:14:15.044Z,101360.59
2018-05-23T19:16:41.808Z,101359.14
2018-05-23T19:19:07.856Z,101365.77
2018-05-23T19:21:33.865Z,101364.23
2018-05-23T19:23:59.885Z,101372.06
2018-05-23T19:26:25.911Z,101372.39
2018-05-23T19:28:51.942Z,101380.48
2018-05-23T19:31:18.047Z,101385.14
2018-05-23T19:33:44.022Z,101383.66
2018-05-23T19:36:10.018Z,101383.38
2018-05-23T19:38:36.021Z,101394.30
2018-05-23T19:41:02.065Z,101393.70
2018-05-23T19:43:28.286Z,101394.52
2018-05-23T19:45:54.700Z,101391.42
2018-05-23T19:48:20.629Z,101398.98
2018-05-23T19:50:47.693Z,101398.75
2018-05-23T19:53:13.644Z,101398.98
2018-05-23T19:55:40.644Z,101405.06
2018-05-23T19:58:06.629Z,101410.70
2018-05-23T20:00:32.636Z,101410.48
2018-05-23T20:02:58.605Z,101411.75
2018-05-23T20:05:24.649Z,101411.80
2018-05-23T20:07:51.269Z,101416.04
2018-05-23T20:10:17.279Z,101420.13
2018-05-23T20:12:43.287Z,101426.50
2018-05-23T20:15:09.278Z,101423.44
2018-05-23T20:17:35.289Z,101422.95
2018-05-23T20:20:02.365Z,101423.72
2018-05-23T20:22:29.346Z,101423.66
2018-05-23T20:24:55.349Z,101432.55
2018-05-23T20:27:21.474Z,101431.73
2018-05-23T20:29:47.547Z,101431.61
2018-05-23T20:32:13.526Z,101434.73
2018-05-23T20:34:39.538Z,101438.11
2018-05-23T20:37:05.504Z,101442.06
2018-05-23T20:39:31.486Z,101438.94
2018-05-23T20:41:57.449Z,101443.95
2018-05-23T20:44:23.395Z,101436.45
2018-05-23T20:46:49.338Z,101430.37
2018-05-23T20:49:15.342Z,101435.77
2018-05-23T20:51:42.392Z,101430.85
2018-05-23T20:54:09.344Z,101434.58
2018-05-23T20:56:35.358Z,101433.20
2018-05-23T20:59:01.385Z,101436.17
2018-05-23T21:01:27.263Z,101442.95
2018-05-23T21:03:53.256Z,101438.96
2018-05-23T21:06:19.231Z,101441.39
2018-05-23T21:08:45.178Z,101436.48
2018-05-23T21:11:11.114Z,101441.13
2018-05-23T21:13:37.102Z,101439.28
2018-05-23T21:16:03.103Z,101440.87
2018-05-23T21:18:29.019Z,101442.77
2018-05-23T21:20:55.001Z,101441.70
2018-05-23T21:23:21.020Z,101442.27
2018-05-23T21:25:47.754Z,101442.14
2018-05-23T21:28:13.742Z,101449.44
2018-05-23T21:30:39.731Z,101444.05
2018-05-23T21:33:05.695Z,101442.66
2018-05-23T21:35:31.679Z,101443.15
2018-05-23T21:37:57.639Z,101437.84
2018-05-23T21:40:23.574Z,101439.86
2018-05-23T21:42:49.518Z,101436.04
2018-05-23T21:45:15.427Z,101435.03
2018-05-23T21:47:41.380Z,101427.86
2018-05-23T21:50:07.355Z,101430.78
2018-05-23T21:52:33.314Z,101426.73
2018-05-23T21:54:59.276Z,101423.37
2018-05-23T21:57:25.178Z,101430.77
2018-05-23T21:59:51.110Z,101431.77
2018-05-23T22:02:17.040Z,101432.02
2018-05-23T22:04:42.975Z,101439.08
2018-05-23T22:07:08.900Z,101431.74
2018-05-23T22:09:34.850Z,101443.48
2018-05-23T22:12:00.746Z,101438.02
2018-05-23T22:14:26.668Z,101436.22
2018-05-23T22:16:52.600Z,101438.03
2018-05-23T22:19:18.493Z,101441.30
2018-05-23T22:21:44.456Z,101441.75
2018-05-23T22:24:10.376Z,101437.13
2018-05-23T22:26:36.310Z,101434.92
2018-05-23T22:29:02.240Z,101435.31
2018-05-23T22:31:28.165Z,101428.80
2018-05-23T22:33:54.095Z,101427.77
2018-05-23T22:36:20.036Z,101434.30
2018-05-23T22:38:45.950Z,101432.85
2018-05-23T22:41:11.882Z,101433.50
2018-05-23T22:43:37.812Z,101422.89
2018-05-23T22:46:03.730Z,101431.91
2018-05-23T22:48:29.683Z,101431.80
2018-05-23T22:50:55.596Z,101431.30
2018-05-23T22:53:21.577Z,101428.70
2018-05-23T22:55:47.510Z,101432.42
2018-05-23T22:58:13.459Z,101430.66
2018-05-23T23:00:39.369Z,101431.20
2018-05-23T23:03:05.291Z,101432.59
2018-05-23T23:05:31.219Z,101424.41
2018-05-23T23:07:57.112Z,101427.83
2018-05-23T23:10:23.056Z,101429.81
2018-05-23T23:12:48.953Z,101431.14
2018-05-23T23:15:14.901Z,101442.41
2018-05-23T23:17:40.823Z,101443.79
2018-05-23T23:20:06.734Z,101444.57
2018-05-23T23:22:37.679Z,101448.45
2018-05-23T23:25:03.604Z,101449.92
2018-05-23T23:27:29.520Z,101451.55
2018-05-23T23:29:55.444Z,101450.97
2018-05-23T23:32:21.370Z,101454.27
2018-05-23T23:34:47.294Z,101450.30
2018-05-23T23:37:13.240Z,101456.05
2018-05-23T23:39:39.172Z,101455.39
2018-05-23T23:42:05.097Z,101456.27
2018-05-23T23:44:31.047Z,101457.25
2018-05-23T23:46:56.956Z,101460.59
2018-05-23T23:49:22.883Z,101472.83
2018-05-23T23:51:48.810Z,101469.00
2018-05-23T23:54:14.766Z,101467.72
2018-05-23T23:56:40.714Z,101470.08
2018-05-23T23:59:06.654Z,101472.05
